Time;durP1;ratioP1;P1;durP2;ratioP2;P2;SDS_P1;SDS_P2;PMS_P1;PMS_P2;Temp;Humidity;BMP_temperature;BMP_pressure;BME280_temperature;BME280_humidity;BME280_pressure;Samples;Min_cycle;Max_cycle;Signal;HPM_P1;HPM_P2
2023/01/25 00:01:45;;;;;;;1.35;1.25;;;;;;;0.85;100.00;101487.38;6042580;23;20305;-92
2023/01/25 00:04:11;;;;;;;1.70;1.60;;;;;;;0.91;100.00;101492.28;6041289;23;20058;-91
2023/01/25 00:06:36;;;;;;;4.40;4.05;;;;;;;0.92;100.00;101496.63;6018426;23;20026;-94
2023/01/25 00:09:03;;;;;;;4.50;1.40;;;;;;;0.89;100.00;101489.09;6064949;23;20022;-93
2023/01/25 00:11:28;;;;;;;4.32;2.72;;;;;;;0.89;100.00;101493.78;6065156;23;20014;-93
2023/01/25 00:13:54;;;;;;;0.47;0.45;;;;;;;0.86;100.00;101483.50;6041625;23;20021;-91
2023/01/25 00:16:20;;;;;;;2.20;1.85;;;;;;;0.85;100.00;101488.16;6017183;23;20358;-91
2023/01/25 00:18:46;;;;;;;3.30;1.67;;;;;;;0.94;100.00;101494.34;6041587;23;20010;-92
2023/01/25 00:21:17;;;;;;;3.13;2.60;;;;;;;0.90;100.00;101490.69;6040288;23;20025;-92
2023/01/25 00:23:43;;;;;;;0.13;0.13;;;;;;;0.92;100.00;101493.91;6017400;23;20014;-93
2023/01/25 00:26:09;;;;;;;1.10;0.90;;;;;;;0.89;100.00;101488.31;6017402;23;20074;-91
2023/01/25 00:28:35;;;;;;;3.20;3.00;;;;;;;0.87;100.00;101494.09;6041379;23;20081;-93
2023/01/25 00:31:02;;;;;;;0.95;0.95;;;;;;;0.96;100.00;101504.16;6016684;23;20042;-93
2023/01/25 00:33:32;;;;;;;2.45;2.25;;;;;;;0.98;100.00;101501.84;6064554;23;20011;-94
2023/01/25 00:35:59;;;;;;;0.60;0.60;;;;;;;0.97;100.00;101509.28;6041400;23;20049;-94
2023/01/25 00:38:34;;;;;;;2.90;2.05;;;;;;;0.97;100.00;101500.28;6040359;23;20439;-91
2023/01/25 00:41:00;;;;;;;1.60;1.52;;;;;;;0.92;100.00;101493.09;6017967;23;20032;-93
2023/01/25 00:43:27;;;;;;;3.88;3.65;;;;;;;0.98;100.00;101499.13;6018064;23;20361;-92
2023/01/25 00:45:59;;;;;;;3.33;2.22;;;;;;;0.91;100.00;101503.22;6064677;23;20410;-93
2023/01/25 00:48:25;;;;;;;1.45;1.35;;;;;;;0.93;100.00;101492.75;6017387;23;20097;-94
2023/01/25 00:50:51;;;;;;;0.70;0.70;;;;;;;1.00;100.00;101502.34;6041144;23;20017;-92
2023/01/25 00:53:16;;;;;;;2.28;2.08;;;;;;;0.89;100.00;101494.53;6041118;23;20023;-91
2023/01/25 00:55:52;;;;;;;1.27;1.27;;;;;;;0.98;100.00;101507.31;6018309;23;20444;-93
2023/01/25 00:58:18;;;;;;;1.73;1.65;;;;;;;0.88;100.00;101490.25;6039079;23;20026;-92
2023/01/25 01:00:44;;;;;;;1.38;1.33;;;;;;;0.92;100.00;101504.81;6041506;23;20135;-93
2023/01/25 01:03:09;;;;;;;1.55;1.45;;;;;;;0.87;100.00;101491.38;6073398;23;20078;-93
2023/01/25 01:05:35;;;;;;;2.00;1.90;;;;;;;0.83;100.00;101501.38;6094149;23;20033;-93
2023/01/25 01:08:01;;;;;;;1.80;1.70;;;;;;;0.91;100.00;101508.69;6093565;23;20025;-92
2023/01/25 01:10:27;;;;;;;1.70;1.60;;;;;;;0.92;100.00;101510.28;6068789;23;20013;-92
2023/01/25 01:12:53;;;;;;;0.75;0.75;;;;;;;0.88;100.00;101498.44;6070553;23;20120;-92
2023/01/25 01:15:18;;;;;;;0.77;0.77;;;;;;;0.94;100.00;101494.34;6071782;23;20018;-92
2023/01/25 01:17:44;;;;;;;1.85;1.15;;;;;;;0.90;100.00;101489.88;6072542;23;20011;-94
2023/01/25 01:20:11;;;;;;;0.77;0.75;;;;;;;0.88;100.00;101495.69;6072080;23;20370;-94
2023/01/25 01:22:37;;;;;;;0.98;0.88;;;;;;;0.92;100.00;101499.38;6071065;23;20013;-93
2023/01/25 01:25:02;;;;;;;0.47;0.47;;;;;;;0.87;100.00;101488.63;6096823;23;20109;-93
2023/01/25 01:27:28;;;;;;;4.80;4.32;;;;;;;0.88;100.00;101492.97;6095017;23;20540;-92
2023/01/25 01:29:54;;;;;;;4.95;2.72;;;;;;;0.91;100.00;101508.69;6072818;23;20021;-92
2023/01/25 01:32:20;;;;;;;1.73;1.65;;;;;;;0.83;100.00;101495.91;6094213;23;20018;-93
2023/01/25 01:34:45;;;;;;;0.20;0.20;;;;;;;0.86;100.00;101489.75;6097505;23;20273;-91
2023/01/25 01:37:11;;;;;;;1.10;1.10;;;;;;;0.86;100.00;101499.88;6096982;23;20064;-92
2023/01/25 01:39:37;;;;;;;2.30;2.08;;;;;;;0.84;100.00;101492.03;6097569;23;20332;-94
2023/01/25 01:42:03;;;;;;;1.25;1.17;;;;;;;0.83;100.00;101490.44;6097126;23;20002;-92
2023/01/25 01:44:54;;;;;;;2.97;2.78;;;;;;;0.92;100.00;101493.91;6072885;23;20029;-93
2023/01/25 01:47:44;;;;;;;2.33;2.22;;;;;;;0.89;100.00;101480.88;6095171;23;20439;-92
2023/01/25 01:50:18;;;;;;;2.25;2.05;;;;;;;0.92;100.00;101477.50;6072520;23;20478;-93
2023/01/25 01:52:44;;;;;;;0.85;0.85;;;;;;;0.87;100.00;101477.72;6094669;23;20014;-94
2023/01/25 01:55:14;;;;;;;2.25;1.67;;;;;;;0.92;100.00;101471.25;6071975;23;20017;-91
2023/01/25 01:57:44;;;;;;;1.98;1.88;;;;;;;0.94;100.00;101483.41;6072029;23;20013;-92
2023/01/25 02:00:17;;;;;;;3.05;2.85;;;;;;;0.91;100.00;101489.56;6095805;23;20286;-92
2023/01/25 02:02:44;;;;;;;0.68;0.68;;;;;;;0.85;100.00;101477.22;6119818;23;20105;-92
2023/01/25 02:05:16;;;;;;;2.50;1.65;;;;;;;0.67;100.00;101451.25;6094503;23;20021;-94
2023/01/25 02:07:43;;;;;;;2.13;1.90;;;;;;;0.83;100.00;101471.31;6119669;23;20045;-93
2023/01/25 02:10:11;;;;;;;1.80;1.65;;;;;;;0.75;100.00;101461.28;6071273;23;20025;-93
2023/01/25 02:12:37;;;;;;;0.60;0.60;;;;;;;0.79;100.00;101467.66;6071324;23;20018;-93
2023/01/25 02:15:07;;;;;;;1.50;1.40;;;;;;;0.83;100.00;101474.06;6096635;23;20057;-92
2023/01/25 02:17:35;;;;;;;0.63;0.60;;;;;;;0.87;100.00;101474.19;6094353;23;20018;-92
2023/01/25 02:20:28;;;;;;;3.05;1.70;;;;;;;0.84;100.00;101475.66;6072405;23;20022;-92
2023/01/25 02:23:11;;;;;;;2.00;1.90;;;;;;;0.83;100.00;101473.25;6070984;23;20040;-93
2023/01/25 02:25:37;;;;;;;3.25;1.52;;;;;;;0.69;100.00;101451.69;6120132;23;20021;-95
2023/01/25 02:28:10;;;;;;;0.75;0.75;;;;;;;0.81;100.00;101475.53;6070877;23;20343;-93
2023/01/25 02:30:35;;;;;;;4.80;2.80;;;;;;;0.80;100.00;101474.72;6118502;23;20025;-92
2023/01/25 02:33:01;;;;;;;6.50;4.00;;;;;;;0.81;100.00;101479.03;6096104;23;20425;-93
2023/01/25 02:35:45;;;;;;;1.50;1.42;;;;;;;0.81;100.00;101459.16;6071806;23;20049;-92
2023/01/25 02:38:13;;;;;;;0.93;0.93;;;;;;;0.73;100.00;101463.53;6070883;23;20073;-93
2023/01/25 02:40:52;;;;;;;1.30;1.30;;;;;;;0.82;100.00;101471.66;6071923;23;20529;-93
2023/01/25 02:43:18;;;;;;;0.55;0.55;;;;;;;0.73;100.00;101463.53;6094247;23;20018;-92
2023/01/25 02:45:47;;;;;;;0.45;0.45;;;;;;;0.70;100.00;101461.47;6095327;23;20050;-91
2023/01/25 02:48:12;;;;;;;0.82;0.82;;;;;;;0.80;100.00;101472.00;6117609;23;20442;-91
2023/01/25 02:50:38;;;;;;;0.95;0.93;;;;;;;0.69;100.00;101446.22;6093246;23;20009;-93
2023/01/25 02:53:03;;;;;;;2.35;1.85;;;;;;;0.75;100.00;101436.69;6119784;23;20474;-92
2023/01/25 02:55:29;;;;;;;1.20;1.10;;;;;;;0.81;100.00;101446.25;6095025;23;20006;-92
2023/01/25 02:57:56;;;;;;;2.10;2.00;;;;;;;0.89;100.00;101439.91;6095482;23;20022;-94
2023/01/25 03:00:21;;;;;;;4.57;3.60;;;;;;;0.72;100.00;101412.81;6119489;23;20505;-94
2023/01/25 03:02:47;;;;;;;0.75;0.75;;;;;;;0.80;100.00;101431.03;6094232;23;20346;-93
2023/01/25 03:05:13;;;;;;;3.42;2.42;;;;;;;0.92;100.00;101450.19;6094947;23;20021;-93
2023/01/25 03:07:38;;;;;;;4.00;1.33;;;;;;;0.82;100.00;101434.22;6092740;23;20017;-93
2023/01/25 03:10:04;;;;;;;0.47;0.47;;;;;;;0.93;100.00;101445.53;6071266;23;20013;-93
2023/01/25 03:12:32;;;;;;;1.17;1.17;;;;;;;0.98;100.00;101452.69;6071032;23;20385;-93
2023/01/25 03:14:58;;;;;;;2.05;1.85;;;;;;;0.92;100.00;101433.78;6094683;23;20156;-93
2023/01/25 03:17:24;;;;;;;1.63;1.60;;;;;;;0.99;100.00;101443.34;6095147;23;20009;-91
2023/01/25 03:19:49;;;;;;;1.90;1.80;;;;;;;0.92;100.00;101439.25;6070001;23;20122;-92
2023/01/25 03:22:15;;;;;;;1.73;1.63;;;;;;;0.96;100.00;101433.09;6117976;23;20017;-93
2023/01/25 03:24:41;;;;;;;2.33;1.33;;;;;;;0.94;100.00;101433.44;6094870;23;20014;-92
2023/01/25 03:27:09;;;;;;;2.08;0.90;;;;;;;0.90;100.00;101414.19;6118466;23;20014;-92
2023/01/25 03:29:40;;;;;;;1.27;1.23;;;;;;;0.94;100.00;101431.50;6073602;23;20420;-93
2023/01/25 03:32:11;;;;;;;3.33;2.97;;;;;;;1.05;100.00;101436.56;6071419;23;20041;-93
2023/01/25 03:34:36;;;;;;;1.63;1.52;;;;;;;0.96;100.00;101420.25;6119663;23;20029;-92
2023/01/25 03:37:02;;;;;;;2.70;2.50;;;;;;;0.92;100.00;101414.66;6118776;23;20450;-93
2023/01/25 03:39:30;;;;;;;0.15;0.15;;;;;;;1.08;100.00;101436.66;6095573;23;20057;-94
2023/01/25 03:41:56;;;;;;;3.03;1.80;;;;;;;0.91;100.00;101413.06;6095285;23;20014;-93
2023/01/25 03:44:22;;;;;;;2.75;2.22;;;;;;;1.10;100.00;101439.03;6093769;23;20097;-93
2023/01/25 03:46:48;;;;;;;0.47;0.47;;;;;;;1.10;100.00;101426.19;6071266;23;20351;-94
2023/01/25 03:49:14;;;;;;;1.35;1.17;;;;;;;1.07;100.00;101406.94;6094736;23;20018;-92
2023/01/25 03:51:39;;;;;;;1.02;1.00;;;;;;;1.06;100.00;101411.59;6093716;23;20029;-94
2023/01/25 03:54:07;;;;;;;3.03;1.40;;;;;;;1.12;100.00;101418.44;6095820;23;20002;-92
2023/01/25 03:56:35;;;;;;;1.10;1.10;;;;;;;1.12;100.00;101420.38;6094645;23;20026;-92
2023/01/25 03:59:13;;;;;;;3.63;1.48;;;;;;;1.08;100.00;101398.41;6096152;23;20328;-92
2023/01/25 04:01:38;;;;;;;2.08;1.13;;;;;;;1.07;100.00;101412.41;6070371;23;20017;-93
2023/01/25 04:04:04;;;;;;;1.67;1.17;;;;;;;0.92;100.00;101395.53;6094273;23;20014;-93
2023/01/25 04:06:31;;;;;;;3.63;1.38;;;;;;;1.05;100.00;101411.97;6072079;23;20100;-93
2023/01/25 04:08:57;;;;;;;1.85;1.73;;;;;;;0.84;100.00;101388.25;6093941;23;20010;-91
2023/01/25 04:11:25;;;;;;;2.00;1.90;;;;;;;0.94;100.00;101393.25;6094434;23;20089;-93
2023/01/25 04:13:50;;;;;;;7.13;3.35;;;;;;;1.00;100.00;101406.72;6070368;23;20009;-92
2023/01/25 04:16:19;;;;;;;0.20;0.17;;;;;;;0.88;100.00;101394.63;6117823;23;20053;-93
2023/01/25 04:19:16;;;;;;;1.33;1.20;;;;;;;0.87;100.00;101387.56;6067281;23;20014;-92
2023/01/25 04:21:42;;;;;;;1.05;1.05;;;;;;;0.91;100.00;101393.94;6094224;23;20093;-92
2023/01/25 04:24:08;;;;;;;2.25;2.15;;;;;;;1.03;100.00;101411.47;6071735;23;20005;-92
2023/01/25 04:26:37;;;;;;;0.00;0.00;;;;;;;0.98;100.00;101404.31;6119984;23;20010;-93
2023/01/25 04:29:04;;;;;;;0.52;0.52;;;;;;;1.04;100.00;101407.63;6070907;23;20323;-93
2023/01/25 04:31:30;;;;;;;1.65;1.55;;;;;;;1.10;100.00;101417.19;6094015;23;20445;-92
2023/01/25 04:33:57;;;;;;;1.38;1.35;;;;;;;1.11;100.00;101413.31;6094292;23;20061;-92
2023/01/25 04:36:22;;;;;;;0.88;0.88;;;;;;;1.01;100.00;101392.72;6094680;23;20018;-93
2023/01/25 04:38:48;;;;;;;2.00;1.67;;;;;;;1.15;100.00;101419.69;6095013;23;20013;-94
2023/01/25 04:41:14;;;;;;;2.45;1.75;;;;;;;1.16;100.00;101413.09;6094162;23;20413;-93
2023/01/25 04:43:40;;;;;;;1.88;1.77;;;;;;;1.10;100.00;101401.59;6071922;23;20010;-93
2023/01/25 04:46:08;;;;;;;0.98;0.98;;;;;;;1.18;100.00;101419.00;6096960;23;20014;-92
2023/01/25 04:48:34;;;;;;;1.60;1.50;;;;;;;1.17;100.00;101414.72;6073998;23;20407;-93
2023/01/25 04:51:03;;;;;;;3.97;1.90;;;;;;;1.14;100.00;101418.91;6122141;23;20065;-92
2023/01/25 04:53:28;;;;;;;3.88;1.48;;;;;;;1.16;100.00;101411.16;6074060;23;20017;-92
2023/01/25 04:55:58;;;;;;;1.55;1.15;;;;;;;1.22;100.00;101422.66;6122597;23;20094;-92
2023/01/25 04:58:25;;;;;;;0.40;0.40;;;;;;;1.27;100.00;101430.66;6073630;23;20096;-93
2023/01/25 05:00:51;;;;;;;3.97;2.60;;;;;;;1.30;100.00;101432.69;6073820;23;20454;-94
2023/01/25 05:03:17;;;;;;;2.78;2.17;;;;;;;1.26;100.00;101412.63;6097259;23;20029;-92
2023/01/25 05:05:45;;;;;;;4.28;3.15;;;;;;;1.36;100.00;101423.94;6073887;23;20400;-93
2023/01/25 05:08:11;;;;;;;1.42;1.27;;;;;;;1.37;100.00;101420.06;6097608;23;20092;-93
2023/01/25 05:10:37;;;;;;;2.97;2.53;;;;;;;1.31;100.00;101406.97;6098192;23;20073;-93
2023/01/25 05:13:23;;;;;;;4.22;1.42;;;;;;;1.36;100.00;101414.94;6082517;23;20013;-93
2023/01/25 05:15:56;;;;;;;4.68;2.55;;;;;;;1.42;100.00;101432.69;6097589;23;20025;-92
2023/01/25 05:18:22;;;;;;;5.13;2.08;;;;;;;1.32;100.00;101412.09;6096446;23;20502;-93
2023/01/25 05:20:54;;;;;;;0.60;0.60;;;;;;;1.45;100.00;101423.03;6096477;23;20006;-92
2023/01/25 05:23:21;;;;;;;2.70;2.50;;;;;;;1.36;100.00;101412.19;6073513;23;20085;-92
2023/01/25 05:28:32;;;;;;;5.05;3.15;;;;;;;1.40;100.00;101432.25;6100372;23;20414;-93
2023/01/25 05:31:21;;;;;;;0.45;0.43;;;;;;;1.40;100.00;101435.00;6087218;23;20009;-93
2023/01/25 05:33:47;;;;;;;2.03;1.83;;;;;;;1.44;100.00;101433.16;6097911;23;20014;-94
2023/01/25 05:36:13;;;;;;;5.05;1.70;;;;;;;1.42;100.00;101440.13;6071857;23;20006;-92
2023/01/25 05:38:40;;;;;;;2.63;1.92;;;;;;;1.47;100.00;101448.09;6095725;23;20046;-92
2023/01/25 05:41:08;;;;;;;1.45;1.35;;;;;;;1.47;100.00;101437.16;6096271;23;20018;-94
2023/01/25 05:43:34;;;;;;;2.97;2.50;;;;;;;1.38;100.00;101424.38;6096699;23;20010;-94
2023/01/25 05:46:04;;;;;;;0.68;0.68;;;;;;;1.34;100.00;101419.94;6072099;23;20085;-93
2023/01/25 05:48:30;;;;;;;3.65;1.25;;;;;;;1.48;100.00;101441.47;6072255;23;20108;-94
2023/01/25 05:50:57;;;;;;;1.20;1.17;;;;;;;1.50;100.00;101442.72;6073718;23;20412;-93
2023/01/25 05:53:27;;;;;;;1.52;0.47;;;;;;;1.44;100.00;101438.63;6072846;23;20017;-94
2023/01/25 05:55:52;;;;;;;4.82;2.35;;;;;;;1.46;100.00;101447.28;6096905;23;20079;-95
2023/01/25 05:58:18;;;;;;;3.92;1.95;;;;;;;1.54;100.00;101451.06;6071182;23;20018;-95
2023/01/25 06:00:44;;;;;;;2.03;1.90;;;;;;;1.39;100.00;101425.19;6071373;23;20006;-94
2023/01/25 06:03:16;;;;;;;1.10;1.10;;;;;;;1.47;100.00;101437.16;6073524;23;20018;-94
2023/01/25 06:05:42;;;;;;;2.72;2.55;;;;;;;1.55;100.00;101461.66;6071416;23;20018;-94
2023/01/25 06:08:08;;;;;;;4.63;1.50;;;;;;;1.50;100.00;101448.19;6095990;23;20022;-94
2023/01/25 06:10:42;;;;;;;2.17;2.08;;;;;;;1.53;100.00;101458.47;6074549;23;20014;-94
2023/01/25 06:13:07;;;;;;;0.20;0.20;;;;;;;1.57;100.00;101453.91;6070947;23;20021;-93
2023/01/25 06:15:33;;;;;;;5.53;1.80;;;;;;;1.52;100.00;101462.34;6072909;23;20105;-95
2023/01/25 06:18:32;;;;;;;4.95;3.63;;;;;;;1.52;100.00;101453.34;6094595;23;20033;-94
2023/01/25 06:21:16;;;;;;;0.85;0.85;;;;;;;1.41;100.00;101450.25;6098881;23;20393;-94
2023/01/25 06:23:41;;;;;;;2.50;2.13;;;;;;;1.51;100.00;101460.72;6096262;23;20022;-95
2023/01/25 06:26:10;;;;;;;0.32;0.32;;;;;;;1.55;100.00;101455.38;6071088;23;20010;-95
2023/01/25 06:28:36;;;;;;;1.45;1.35;;;;;;;1.40;100.00;101432.25;6099233;23;20037;-93
2023/01/25 06:31:07;;;;;;;1.17;1.02;;;;;;;1.35;100.00;101429.75;6074163;23;20035;-93
2023/01/25 06:33:33;;;;;;;1.50;1.20;;;;;;;1.42;100.00;101440.91;6098639;23;20105;-94
2023/01/25 06:36:05;;;;;;;1.20;1.13;;;;;;;1.23;100.00;101416.06;6113675;23;20048;-95
2023/01/25 06:38:32;;;;;;;3.33;3.13;;;;;;;1.27;100.00;101414.25;6119660;23;20018;-95
2023/01/25 06:41:03;;;;;;;0.90;0.90;;;;;;;1.51;100.00;101454.47;6088907;23;20046;-95
2023/01/25 07:17:24;;;;;;;1.48;1.40;;;;;;;1.59;100.00;101440.69;6124912;23;20104;-92
2023/01/25 07:19:50;;;;;;;1.73;1.63;;;;;;;1.44;100.00;101416.75;6048095;23;20053;-93
2023/01/25 07:22:16;;;;;;;1.65;1.55;;;;;;;1.40;100.00;101413.13;6122056;23;20499;-91
2023/01/25 07:24:48;;;;;;;2.55;2.35;;;;;;;1.51;100.00;101433.38;6072786;23;20021;-92
2023/01/25 07:27:15;;;;;;;1.45;1.38;;;;;;;1.51;100.00;101433.38;6073719;23;20088;-91
2023/01/25 07:29:41;;;;;;;2.95;2.75;;;;;;;1.28;100.00;101391.25;6096810;23;20030;-91
2023/01/25 07:32:07;;;;;;;0.93;0.90;;;;;;;1.48;100.00;101428.63;6072420;23;20455;-93
2023/01/25 07:34:32;;;;;;;1.40;1.30;;;;;;;1.50;100.00;101437.25;6096545;23;20449;-91
2023/01/25 07:36:58;;;;;;;1.48;1.38;;;;;;;1.39;100.00;101420.50;6096718;23;20045;-92
2023/01/25 07:39:24;;;;;;;2.20;1.92;;;;;;;1.51;100.00;101416.97;6048601;23;20101;-92
2023/01/25 07:41:49;;;;;;;1.40;1.30;;;;;;;1.39;100.00;101398.66;6096622;23;20013;-92
2023/01/25 07:44:17;;;;;;;3.10;2.80;;;;;;;1.45;100.00;101409.38;6072805;23;20460;-91
2023/01/25 07:46:46;;;;;;;1.05;1.05;;;;;;;1.58;100.00;101430.88;6072666;23;20048;-92
2023/01/25 07:49:12;;;;;;;2.15;2.05;;;;;;;1.46;100.00;101408.22;6071710;23;20006;-91
2023/01/25 07:51:37;;;;;;;1.73;1.63;;;;;;;1.44;100.00;101388.63;6096515;23;20021;-92
2023/01/25 07:54:04;;;;;;;2.78;2.53;;;;;;;1.65;100.00;101427.59;6096930;23;19998;-94
2023/01/25 07:56:34;;;;;;;2.38;2.20;;;;;;;1.59;100.00;101410.59;6072120;23;20017;-92
2023/01/25 07:59:01;;;;;;;1.33;1.23;;;;;;;1.50;100.00;101377.09;6072733;23;20041;-90
2023/01/25 08:01:30;;;;;;;2.60;2.40;;;;;;;1.57;100.00;101417.56;6121408;23;20440;-91
2023/01/25 08:03:57;;;;;;;2.00;1.90;;;;;;;1.59;100.00;101415.25;6096841;23;20089;-91
2023/01/25 08:06:26;;;;;;;2.00;1.80;;;;;;;1.71;100.00;101432.47;6072264;23;20006;-93
2023/01/25 08:08:53;;;;;;;1.85;1.75;;;;;;;1.63;100.00;101418.91;6097048;23;20022;-93
2023/01/25 08:11:24;;;;;;;6.97;3.50;;;;;;;1.64;100.00;101413.09;6095945;23;20006;-91
2023/01/25 08:13:50;;;;;;;2.00;1.90;;;;;;;1.71;100.00;101415.25;6099185;23;20014;-94
2023/01/25 08:16:17;;;;;;;4.22;3.35;;;;;;;1.70;100.00;101413.69;6074916;23;20028;-94
2023/01/25 08:18:46;;;;;;;1.00;1.00;;;;;;;1.55;100.00;101397.94;6063171;23;20491;-94
2023/01/25 08:21:12;;;;;;;1.92;1.83;;;;;;;1.61;100.00;101408.31;6076658;23;20014;-93
2023/01/25 08:23:38;;;;;;;5.47;2.40;;;;;;;1.79;100.00;101428.00;6101621;23;20506;-95
2023/01/25 08:26:05;;;;;;;2.28;2.10;;;;;;;1.81;100.00;101437.47;6076928;23;20068;-94
2023/01/25 08:28:31;;;;;;;3.17;2.30;;;;;;;1.70;100.00;101419.94;6052819;23;20352;-94
2023/01/25 08:31:24;;;;;;;0.57;0.57;;;;;;;1.72;100.00;101422.31;6076594;23;20014;-94
2023/01/25 08:33:51;;;;;;;3.92;2.92;;;;;;;1.76;100.00;101424.03;6099788;23;20093;-95
2023/01/25 08:36:17;;;;;;;4.45;1.10;;;;;;;1.67;100.00;101409.69;6052359;23;20013;-93
2023/01/25 08:38:44;;;;;;;2.45;2.30;;;;;;;1.69;100.00;101407.41;6053357;23;20112;-93
2023/01/25 08:41:13;;;;;;;1.58;1.48;;;;;;;1.79;100.00;101433.47;6053114;23;20040;-94
2023/01/25 08:43:38;;;;;;;0.73;0.73;;;;;;;1.73;100.00;101413.78;6077181;23;20057;-93
2023/01/25 08:46:05;;;;;;;1.90;1.80;;;;;;;1.74;100.00;101415.34;6101094;23;20041;-94
2023/01/25 08:48:31;;;;;;;0.95;0.82;;;;;;;1.76;100.00;101406.81;6076374;23;20002;-95
2023/01/25 08:50:56;;;;;;;2.38;1.95;;;;;;;1.80;100.00;101413.19;6052724;23;20013;-95
2023/01/25 08:53:22;;;;;;;1.88;1.77;;;;;;;1.70;100.00;101392.56;6077606;23;20021;-95
2023/01/25 08:55:48;;;;;;;4.88;1.33;;;;;;;1.81;100.00;101415.59;6076914;23;20057;-94
2023/01/25 08:58:15;;;;;;;2.00;1.60;;;;;;;1.78;100.00;101391.66;6076366;23;20216;-93
2023/01/25 09:00:42;;;;;;;1.70;1.30;;;;;;;1.68;100.00;101394.88;6076838;23;20053;-95
2023/01/25 09:03:09;;;;;;;6.78;3.08;;;;;;;1.84;100.00;101423.13;6053347;23;20006;-95
2023/01/25 09:05:36;;;;;;;3.60;3.30;;;;;;;1.72;100.00;101406.72;6076174;23;20068;-95
2023/01/25 09:08:02;;;;;;;4.60;4.03;;;;;;;1.88;100.00;101424.00;6076888;23;20010;-94
2023/01/25 09:10:28;;;;;;;1.10;1.10;;;;;;;1.71;100.00;101396.91;6049887;23;20021;-91
2023/01/25 09:12:54;;;;;;;3.38;2.30;;;;;;;1.92;100.00;101421.38;6099828;23;20014;-94
2023/01/25 09:15:21;;;;;;;1.15;1.02;;;;;;;1.93;100.00;101427.66;6076450;23;20021;-94
2023/01/25 09:17:53;;;;;;;1.58;1.48;;;;;;;1.75;100.00;101383.34;6078107;23;20017;-94
2023/01/25 09:20:18;;;;;;;6.22;2.30;;;;;;;1.80;100.00;101397.59;6076631;23;20025;-95
2023/01/25 09:22:44;;;;;;;4.30;3.33;;;;;;;2.07;100.00;101428.06;6099739;23;20021;-93
2023/01/25 09:25:10;;;;;;;2.58;2.28;;;;;;;1.88;100.00;101410.34;6076488;23;20018;-93
2023/01/25 09:27:36;;;;;;;1.30;1.23;;;;;;;1.83;100.00;101388.69;6076436;23;20013;-93
2023/01/25 09:30:03;;;;;;;6.00;1.95;;;;;;;1.87;100.00;101389.59;6099643;23;20040;-95
2023/01/25 09:32:29;;;;;;;3.13;2.55;;;;;;;1.85;100.00;101382.88;6099853;23;20104;-95
2023/01/25 09:34:55;;;;;;;2.00;1.90;;;;;;;1.96;100.00;101394.94;6076924;23;20056;-93
2023/01/25 09:37:20;;;;;;;1.80;1.48;;;;;;;1.98;100.00;101375.44;6100235;23;20093;-96
2023/01/25 09:39:46;;;;;;;1.65;1.55;;;;;;;2.00;100.00;101386.81;6100639;23;20038;-96
2023/01/25 09:42:45;;;;;;;3.15;2.80;;;;;;;2.14;100.00;101399.00;6076396;23;20010;-94
2023/01/25 09:45:26;;;;;;;0.95;0.95;;;;;;;2.24;100.00;101400.44;6124281;23;20451;-94
2023/01/25 09:48:04;;;;;;;0.65;0.65;;;;;;;2.25;100.00;101402.03;6076441;23;20044;-96
2023/01/25 09:50:41;;;;;;;5.18;3.58;;;;;;;2.17;100.00;101392.00;6124502;23;20614;-95
2023/01/25 09:53:20;;;;;;;1.90;1.80;;;;;;;2.21;100.00;101398.38;6076452;23;20014;-94
2023/01/25 09:55:54;;;;;;;5.30;1.38;;;;;;;1.93;100.00;101356.50;6124719;23;20022;-94
2023/01/25 09:58:25;;;;;;;2.58;2.42;;;;;;;2.01;100.00;101366.53;6075699;23;20022;-94
2023/01/25 10:01:27;;;;;;;2.25;2.08;;;;;;;1.99;100.00;101358.66;6076041;23;20102;-94
2023/01/25 10:04:12;;;;;;;0.93;0.93;;;;;;;2.13;100.00;101371.97;6080879;23;20452;-93
2023/01/25 10:06:40;;;;;;;1.08;1.08;;;;;;;2.14;100.00;101351.66;6074775;23;20440;-93
2023/01/25 10:09:22;;;;;;;2.75;2.50;;;;;;;2.26;100.00;101376.25;6075782;23;20006;-95
2023/01/25 10:11:47;;;;;;;3.85;2.17;;;;;;;1.92;100.00;101343.97;6100089;23;20479;-95
2023/01/25 10:14:17;;;;;;;1.75;1.58;;;;;;;2.24;100.00;101375.78;6100091;23;20033;-93
2023/01/25 10:16:45;;;;;;;2.53;2.33;;;;;;;2.23;100.00;101361.28;6075581;23;20022;-95
2023/01/25 10:19:29;;;;;;;2.10;2.00;;;;;;;2.28;100.00;101355.56;6099067;23;20022;-94
2023/01/25 10:22:05;;;;;;;;;;;;;;;2.28;100.00;101352.03;6124830;23;20033;-95
2023/01/25 10:24:42;;;;;;;0.57;0.57;;;;;;;2.03;100.00;101302.06;6099959;23;20323;-92
2023/01/25 10:27:27;;;;;;;2.60;1.50;;;;;;;2.02;100.00;101305.19;6123532;23;20014;-94
2023/01/25 10:29:56;;;;;;;3.25;2.78;;;;;;;2.02;100.00;101294.22;6076101;23;20022;-95
2023/01/25 10:32:31;;;;;;;1.60;1.50;;;;;;;2.22;100.00;101331.56;6075691;23;20086;-94
2023/01/25 10:35:00;;;;;;;1.40;1.33;;;;;;;2.14;100.00;101330.56;6076159;23;20018;-94
2023/01/25 10:37:28;;;;;;;1.05;1.00;;;;;;;2.08;100.00;101306.50;6100081;23;20018;-94
2023/01/25 10:40:13;;;;;;;1.13;1.13;;;;;;;2.09;100.00;101305.38;6100098;23;20009;-94
2023/01/25 10:42:50;;;;;;;1.45;1.35;;;;;;;2.19;100.00;101322.06;6100030;23;20073;-94
2023/01/25 10:45:16;;;;;;;2.45;1.60;;;;;;;2.23;100.00;101319.44;6099884;23;20020;-93
2023/01/25 10:47:46;;;;;;;0.85;0.85;;;;;;;2.08;100.00;101298.28;6075569;23;20009;-94
2023/01/25 10:50:37;;;;;;;1.33;1.05;;;;;;;2.07;100.00;101285.75;6075712;23;20022;-96
2023/01/25 10:53:03;;;;;;;2.00;1.90;;;;;;;2.08;100.00;101288.16;6099905;23;20097;-94
2023/01/25 10:55:28;;;;;;;2.47;2.28;;;;;;;2.24;100.00;101319.09;6075709;23;20045;-94
2023/01/25 10:57:59;;;;;;;1.00;1.00;;;;;;;1.93;100.00;101268.94;6075743;23;20535;-94
2023/01/25 11:00:37;;;;;;;2.00;1.85;;;;;;;2.04;100.00;101268.09;6076062;23;20026;-95
2023/01/25 11:03:03;;;;;;;2.00;1.80;;;;;;;2.03;100.00;101262.97;6075595;23;20029;-94
2023/01/25 11:05:34;;;;;;;2.85;2.70;;;;;;;2.21;100.00;101280.66;6098900;23;20014;-96
2023/01/25 11:08:30;;;;;;;3.67;1.52;;;;;;;2.40;100.00;101294.47;6099346;23;20052;-95
2023/01/25 11:10:57;;;;;;;3.92;3.05;;;;;;;2.37;100.00;101276.03;6098642;23;20022;-94
2023/01/25 11:13:28;;;;;;;0.30;0.30;;;;;;;2.39;100.00;101292.88;6074902;23;20017;-93
2023/01/25 11:16:13;;;;;;;2.50;2.40;;;;;;;2.22;100.00;101265.84;6074893;23;20341;-94
2023/01/25 11:18:51;;;;;;;0.82;0.82;;;;;;;2.40;100.00;101277.25;6074910;23;20026;-94
2023/01/25 11:21:23;;;;;;;2.08;1.33;;;;;;;2.14;100.00;101233.97;6051555;23;20028;-96
2023/01/25 11:24:08;;;;;;;1.80;1.70;;;;;;;2.39;100.00;101270.97;6073667;23;20024;-91
2023/01/25 11:27:20;;;;;;;4.82;4.35;;;;;;;2.33;100.00;101275.13;6122296;23;20029;-92
2023/01/25 11:30:06;;;;;;;1.67;1.58;;;;;;;2.37;100.00;101256.84;6096894;23;20045;-91
2023/01/25 11:32:32;;;;;;;3.63;3.30;;;;;;;2.32;100.00;101254.38;6120499;23;20045;-91
2023/01/25 11:34:58;;;;;;;3.00;2.38;;;;;;;2.40;100.00;101264.34;6096298;23;20005;-93
2023/01/25 11:37:32;;;;;;;0.80;0.80;;;;;;;2.24;100.00;101234.22;6096706;23;20590;-94
2023/01/25 11:40:15;;;;;;;4.55;4.10;;;;;;;2.32;100.00;101248.88;6096406;23;20018;-93
2023/01/25 11:42:51;;;;;;;1.27;0.93;;;;;;;2.22;100.00;101216.56;6122783;23;20098;-92
2023/01/25 11:45:32;;;;;;;1.48;1.35;;;;;;;2.41;100.00;101251.47;6096314;23;20006;-91
2023/01/25 11:48:13;;;;;;;1.38;1.33;;;;;;;2.16;100.00;101213.28;6096551;23;20061;-92
2023/01/25 11:51:01;;;;;;;21.92;3.00;;;;;;;2.43;100.00;101244.47;6120968;23;20125;-92
2023/01/25 11:53:44;;;;;;;0.90;0.90;;;;;;;2.22;100.00;101222.03;6120355;23;20471;-92
2023/01/25 11:56:17;;;;;;;2.20;2.08;;;;;;;2.26;100.00;101218.25;6123479;23;20018;-93
2023/01/25 11:59:04;;;;;;;4.07;2.63;;;;;;;2.36;100.00;101236.09;6098255;23;20014;-92
2023/01/25 12:01:58;;;;;;;3.17;2.92;;;;;;;2.27;100.00;101227.25;6122850;23;20101;-95
2023/01/25 12:04:37;;;;;;;3.40;2.17;;;;;;;2.25;100.00;101204.91;6051197;23;20673;-92
2023/01/25 12:07:05;;;;;;;3.30;1.80;;;;;;;2.18;100.00;101188.31;6122630;23;20013;-92
2023/01/25 12:09:49;;;;;;;2.10;1.77;;;;;;;2.35;100.00;101212.59;6098138;23;20053;-92
2023/01/25 12:12:41;;;;;;;1.58;1.48;;;;;;;2.28;100.00;101209.66;6097858;23;20017;-92
2023/01/25 12:15:38;;;;;;;1.48;1.38;;;;;;;2.17;100.00;101194.94;6094840;23;20049;-92